createdAt,value
2017-04-29T00:01:00.773Z,12
2017-04-29T00:02:14.534Z,12
2017-04-29T00:03:27.865Z,12
2017-04-29T00:04:41.797Z,12
2017-04-29T00:05:55.304Z,12
2017-04-29T00:07:09.291Z,12
2017-04-29T00:08:23.141Z,12
2017-04-29T00:09:37.013Z,12
2017-04-29T00:10:50.893Z,12
2017-04-29T00:12:04.661Z,12
2017-04-29T00:13:18.355Z,12
2017-04-29T00:14:32.024Z,12
2017-04-29T00:15:45.675Z,8
2017-04-29T00:16:59.689Z,4
2017-04-29T00:18:13.944Z,4
2017-04-29T00:19:28.180Z,12
2017-04-29T00:20:42.504Z,12
2017-04-29T00:21:56.795Z,12
2017-04-29T00:23:10.421Z,12
2017-04-29T00:24:24.670Z,12
2017-04-29T00:25:38.729Z,12
2017-04-29T00:26:52.915Z,4
2017-04-29T00:28:07.192Z,4
2017-04-29T00:29:21.036Z,12
2017-04-29T00:30:35.279Z,12
2017-04-29T00:31:49.574Z,12
2017-04-29T00:33:17.714Z,12
2017-04-29T00:34:31.547Z,12
2017-04-29T00:35:45.976Z,12
2017-04-29T00:37:00.389Z,4
2017-04-29T00:38:13.554Z,4
2017-04-29T00:39:27.334Z,12
2017-04-29T00:40:40.624Z,12
2017-04-29T00:41:53.364Z,12
2017-04-29T00:43:06.108Z,12
2017-04-29T00:44:18.851Z,16
2017-04-29T00:45:31.114Z,16
2017-04-29T00:46:43.853Z,12
2017-04-29T00:47:56.595Z,12
2017-04-29T00:49:09.334Z,4
2017-04-29T00:50:22.083Z,4
2017-04-29T00:51:34.826Z,12
2017-04-29T00:52:47.560Z,12
2017-04-29T00:54:00.552Z,12
2017-04-29T00:55:13.319Z,12
2017-04-29T00:56:25.576Z,8
2017-04-29T00:57:37.853Z,12
2017-04-29T00:58:50.595Z,12
2017-04-29T01:00:03.328Z,12
2017-04-29T01:01:15.585Z,12
2017-04-29T01:02:28.320Z,8
2017-04-29T01:03:41.059Z,4
2017-04-29T01:04:53.803Z,4
2017-04-29T01:06:06.538Z,4
2017-04-29T01:07:19.274Z,12
2017-04-29T01:08:32.009Z,16
2017-04-29T01:09:44.518Z,12
2017-04-29T01:10:57.250Z,12
2017-04-29T01:12:09.507Z,12
2017-04-29T01:13:21.765Z,12
2017-04-29T01:14:34.503Z,12
2017-04-29T01:15:47.233Z,4
2017-04-29T01:16:59.487Z,4
2017-04-29T01:18:11.747Z,4
2017-04-29T01:19:24.487Z,12
2017-04-29T01:20:37.526Z,16
2017-04-29T01:21:50.262Z,16
2017-04-29T01:23:02.998Z,12
2017-04-29T01:24:15.740Z,12
2017-04-29T01:25:28.510Z,12
2017-04-29T01:26:41.369Z,12
2017-04-29T01:27:53.696Z,12
2017-04-29T01:29:05.977Z,12
2017-04-29T01:30:18.350Z,12
2017-04-29T01:31:31.432Z,12
2017-04-29T01:32:44.231Z,12
2017-04-29T01:33:57.000Z,12
2017-04-29T01:35:09.810Z,12
2017-04-29T01:36:22.129Z,12
2017-04-29T01:37:34.743Z,12
2017-04-29T01:38:47.499Z,12
2017-04-29T01:39:59.318Z,12
2017-04-29T01:41:12.088Z,12
2017-04-29T01:42:24.651Z,12
2017-04-29T01:43:36.963Z,12
2017-04-29T01:44:49.224Z,8
2017-04-29T01:46:01.990Z,12
2017-04-29T01:47:14.759Z,12
2017-04-29T01:48:27.843Z,12
2017-04-29T01:49:40.637Z,4
2017-04-29T01:50:53.504Z,4
2017-04-29T01:52:05.873Z,12
2017-04-29T01:53:18.220Z,12
2017-04-29T01:54:31.065Z,12
2017-04-29T01:55:43.958Z,12
2017-04-29T01:56:56.795Z,12
2017-04-29T01:58:09.162Z,12
2017-04-29T01:59:21.824Z,12
2017-04-29T02:00:34.594Z,12
2017-04-29T02:01:47.389Z,12
2017-04-29T02:03:00.214Z,12
2017-04-29T02:04:12.797Z,12
2017-04-29T02:05:24.602Z,12
2017-04-29T02:06:37.383Z,12
2017-04-29T02:07:50.451Z,12
2017-04-29T02:09:03.371Z,12
2017-04-29T02:10:16.319Z,12
2017-04-29T02:11:29.365Z,12
2017-04-29T02:12:42.478Z,12
2017-04-29T02:13:55.443Z,12
2017-04-29T02:15:08.022Z,12
2017-04-29T02:16:19.897Z,12
2017-04-29T02:17:32.252Z,12
2017-04-29T02:18:45.111Z,12
2017-04-29T02:19:57.972Z,12
2017-04-29T02:21:10.918Z,12
2017-04-29T02:22:23.761Z,12
2017-04-29T02:23:36.516Z,12
2017-04-29T02:24:49.251Z,12
2017-04-29T02:26:01.995Z,12
2017-04-29T02:27:14.740Z,12
2017-04-29T02:28:27.021Z,12
2017-04-29T02:29:39.774Z,12
2017-04-29T02:30:52.521Z,12
2017-04-29T02:32:05.264Z,12
2017-04-29T02:33:18.007Z,12
2017-04-29T02:34:30.743Z,12
2017-04-29T02:35:43.483Z,12
2017-04-29T02:36:56.225Z,12
2017-04-29T02:38:08.490Z,12
2017-04-29T02:39:21.232Z,12
2017-04-29T02:40:33.972Z,12
2017-04-29T02:41:46.712Z,12
2017-04-29T02:42:59.459Z,12
2017-04-29T02:44:11.731Z,12
2017-04-29T02:45:24.475Z,12
2017-04-29T02:46:37.220Z,12
2017-04-29T02:47:49.975Z,12
2017-04-29T02:49:02.733Z,12
2017-04-29T02:50:14.996Z,12
2017-04-29T02:51:27.739Z,12
2017-04-29T02:52:40.477Z,4
2017-04-29T02:53:53.224Z,12
2017-04-29T02:55:05.502Z,12
2017-04-29T02:56:17.762Z,12
2017-04-29T02:57:30.502Z,12
2017-04-29T02:58:43.256Z,12
2017-04-29T02:59:56.009Z,12
2017-04-29T03:01:08.760Z,12
2017-04-29T03:02:21.024Z,16
2017-04-29T03:03:34.039Z,12
2017-04-29T03:04:46.924Z,12
2017-04-29T03:05:59.671Z,12
2017-04-29T03:07:12.628Z,12
2017-04-29T03:08:25.160Z,12
2017-04-29T03:09:37.429Z,12
2017-04-29T03:10:50.171Z,12
2017-04-29T03:12:02.918Z,12
2017-04-29T03:13:15.665Z,12
2017-04-29T03:14:28.411Z,12
2017-04-29T03:15:41.154Z,12
2017-04-29T03:16:53.896Z,12
2017-04-29T03:18:06.651Z,12
2017-04-29T03:19:18.916Z,12
2017-04-29T03:20:31.661Z,12
2017-04-29T03:21:44.405Z,12
2017-04-29T03:22:57.173Z,12
2017-04-29T03:24:09.912Z,12
2017-04-29T03:25:22.657Z,12
2017-04-29T03:26:49.483Z,12
2017-04-29T03:28:02.237Z,12
2017-04-29T03:29:14.511Z,12
2017-04-29T03:30:27.272Z,16
2017-04-29T03:31:39.542Z,12
2017-04-29T03:32:52.304Z,12
2017-04-29T03:34:05.058Z,12
2017-04-29T03:35:17.324Z,12
2017-04-29T03:36:30.329Z,12
2017-04-29T03:37:43.081Z,12
2017-04-29T03:38:55.830Z,12
2017-04-29T03:40:08.585Z,12
2017-04-29T03:41:20.372Z,12
2017-04-29T03:42:33.133Z,12
2017-04-29T03:43:45.889Z,12
2017-04-29T03:44:58.647Z,4
2017-04-29T03:46:10.924Z,16
2017-04-29T03:47:23.206Z,12
2017-04-29T03:48:35.954Z,12
2017-04-29T03:49:48.701Z,12
2017-04-29T03:51:01.484Z,12
2017-04-29T03:52:14.234Z,12
2017-04-29T03:53:27.000Z,12
2017-04-29T03:54:39.274Z,8
2017-04-29T03:55:52.023Z,12
2017-04-29T03:57:03.801Z,12
2017-04-29T03:58:16.545Z,12
2017-04-29T03:59:28.805Z,16
2017-04-29T04:00:41.560Z,12
2017-04-29T04:01:54.317Z,12
2017-04-29T04:03:07.065Z,12
2017-04-29T04:04:20.060Z,12
2017-04-29T04:05:32.803Z,12
2017-04-29T04:06:45.549Z,12
2017-04-29T04:07:58.301Z,12
2017-04-29T04:09:11.302Z,12
2017-04-29T04:10:23.567Z,12
2017-04-29T04:11:36.307Z,12
2017-04-29T04:12:49.057Z,12
2017-04-29T04:14:01.804Z,12
2017-04-29T04:15:14.556Z,12
2017-04-29T04:16:27.311Z,12
2017-04-29T04:17:40.056Z,12
2017-04-29T04:18:52.806Z,12
2017-04-29T04:20:05.564Z,12
2017-04-29T04:21:17.829Z,12
2017-04-29T04:22:30.576Z,12
2017-04-29T04:23:43.313Z,12
2017-04-29T04:24:56.057Z,12
2017-04-29T04:26:08.829Z,12
2017-04-29T04:27:21.575Z,12
2017-04-29T04:28:34.319Z,12
2017-04-29T04:29:47.066Z,12
2017-04-29T04:30:59.817Z,12
2017-04-29T04:32:12.556Z,12
2017-04-29T04:33:24.814Z,12
2017-04-29T04:34:37.078Z,4
2017-04-29T04:35:49.825Z,16
2017-04-29T04:37:02.869Z,12
2017-04-29T04:38:15.625Z,12
2017-04-29T04:39:27.428Z,12
2017-04-29T04:40:39.698Z,12
2017-04-29T04:41:52.776Z,12
2017-04-29T04:43:05.524Z,12
2017-04-29T04:44:17.791Z,12
2017-04-29T04:45:30.534Z,12
2017-04-29T04:46:42.799Z,12
2017-04-29T04:47:55.807Z,12
2017-04-29T04:49:08.569Z,4
2017-04-29T04:50:21.314Z,12
2017-04-29T04:51:34.055Z,8
2017-04-29T04:52:46.790Z,12
2017-04-29T04:53:59.531Z,12
2017-04-29T04:55:11.796Z,12
2017-04-29T04:56:24.539Z,8
2017-04-29T04:57:37.293Z,12
2017-04-29T04:59:04.120Z,12
2017-04-29T05:00:16.859Z,12
2017-04-29T05:01:29.597Z,12
2017-04-29T05:02:42.348Z,12
2017-04-29T05:03:55.100Z,12
2017-04-29T05:05:07.846Z,8
2017-04-29T05:06:20.592Z,4
2017-04-29T05:07:32.842Z,12
2017-04-29T05:08:45.835Z,12
2017-04-29T05:09:58.576Z,12
2017-04-29T05:11:10.355Z,8
2017-04-29T05:12:23.086Z,8
2017-04-29T05:13:35.836Z,12
2017-04-29T05:14:48.567Z,12
2017-04-29T05:16:00.833Z,12
2017-04-29T05:17:13.566Z,12
2017-04-29T05:18:26.319Z,12
2017-04-29T05:19:38.574Z,12
2017-04-29T05:20:51.308Z,12
2017-04-29T05:22:04.039Z,4
2017-04-29T05:23:16.306Z,12
2017-04-29T05:24:29.067Z,12
2017-04-29T05:25:42.060Z,12
2017-04-29T05:26:54.804Z,12
2017-04-29T05:28:07.542Z,12
2017-04-29T05:29:19.812Z,12
2017-04-29T05:30:32.860Z,16
2017-04-29T05:31:45.594Z,12
2017-04-29T05:32:57.869Z,12
2017-04-29T05:34:10.139Z,12
2017-04-29T05:35:22.885Z,12
2017-04-29T05:36:35.632Z,16
2017-04-29T05:37:47.898Z,12
2017-04-29T05:39:00.651Z,12
2017-04-29T05:40:13.395Z,4
2017-04-29T05:41:26.148Z,12
2017-04-29T05:42:38.888Z,12
2017-04-29T05:43:51.628Z,12
2017-04-29T05:45:03.891Z,12
2017-04-29T05:46:15.680Z,12
2017-04-29T05:47:28.665Z,4
2017-04-29T05:48:40.935Z,12
2017-04-29T05:49:53.686Z,16
2017-04-29T05:51:06.433Z,12
2017-04-29T05:52:18.222Z,12
2017-04-29T05:53:30.967Z,12
2017-04-29T05:54:43.711Z,4
2017-04-29T05:55:56.456Z,12
2017-04-29T05:57:09.194Z,16
2017-04-29T05:58:21.461Z,12
2017-04-29T05:59:34.202Z,12
2017-04-29T06:00:46.960Z,4
2017-04-29T06:01:59.780Z,4
2017-04-29T06:03:12.823Z,12
2017-04-29T06:04:25.562Z,16
2017-04-29T06:05:38.312Z,16
2017-04-29T06:06:51.059Z,12
2017-04-29T06:08:03.802Z,4
2017-04-29T06:09:16.847Z,12
2017-04-29T06:10:29.583Z,12
2017-04-29T06:11:42.317Z,8
2017-04-29T06:12:55.054Z,12
2017-04-29T06:14:08.093Z,12
2017-04-29T06:15:20.826Z,12
2017-04-29T06:16:33.083Z,12
2017-04-29T06:17:45.348Z,12
2017-04-29T06:18:58.122Z,12
2017-04-29T06:20:10.682Z,12
2017-04-29T06:21:22.938Z,8
2017-04-29T06:22:35.670Z,12
2017-04-29T06:23:48.407Z,12
2017-04-29T06:25:01.450Z,12
2017-04-29T06:26:13.230Z,12
2017-04-29T06:27:25.963Z,12
2017-04-29T06:28:38.703Z,12
2017-04-29T06:29:51.445Z,8
2017-04-29T06:31:03.953Z,12
2017-04-29T06:32:16.690Z,12
2017-04-29T06:33:29.430Z,12
2017-04-29T06:34:41.690Z,8
2017-04-29T06:35:54.429Z,12
2017-04-29T06:37:07.202Z,8
2017-04-29T06:38:19.455Z,8
2017-04-29T06:39:31.737Z,12
2017-04-29T06:40:44.485Z,12
2017-04-29T06:41:57.521Z,12
2017-04-29T06:43:09.787Z,4
2017-04-29T06:44:22.544Z,12
2017-04-29T06:45:34.804Z,12
2017-04-29T06:46:47.544Z,12
2017-04-29T06:48:00.287Z,12
2017-04-29T06:49:13.032Z,12
2017-04-29T06:50:25.291Z,12
2017-04-29T06:51:38.047Z,12
2017-04-29T06:52:50.801Z,12
2017-04-29T06:54:03.105Z,12
2017-04-29T06:55:15.851Z,12
2017-04-29T06:56:28.592Z,12
2017-04-29T06:57:41.587Z,12
2017-04-29T06:58:54.334Z,12
2017-04-29T07:00:06.609Z,12
2017-04-29T07:01:19.353Z,12
2017-04-29T07:02:32.104Z,12
2017-04-29T07:03:44.867Z,12
2017-04-29T07:04:57.624Z,12
2017-04-29T07:06:10.379Z,4
2017-04-29T07:07:23.144Z,12
2017-04-29T07:08:35.902Z,8
2017-04-29T07:09:48.171Z,12
2017-04-29T07:11:00.918Z,12
2017-04-29T07:12:13.186Z,12
2017-04-29T07:13:25.952Z,4
2017-04-29T07:14:38.220Z,16
2017-04-29T07:15:50.965Z,12
2017-04-29T07:17:03.714Z,12
2017-04-29T07:18:16.462Z,12
2017-04-29T07:19:29.217Z,12
2017-04-29T07:20:41.003Z,12
2017-04-29T07:21:53.751Z,8
2017-04-29T07:23:06.506Z,12
2017-04-29T07:24:19.276Z,12
2017-04-29T07:25:32.029Z,12
2017-04-29T07:26:44.294Z,12
2017-04-29T07:27:56.561Z,12
2017-04-29T07:29:09.351Z,12
2017-04-29T07:30:22.429Z,12
2017-04-29T07:31:35.182Z,4
2017-04-29T07:32:47.942Z,12
2017-04-29T07:34:00.690Z,12
2017-04-29T07:35:12.953Z,12
2017-04-29T07:36:25.699Z,4
2017-04-29T07:37:38.486Z,8
2017-04-29T07:38:50.758Z,12
2017-04-29T07:40:03.510Z,12
2017-04-29T07:41:15.594Z,12
2017-04-29T07:42:27.858Z,12
2017-04-29T07:43:40.614Z,12
2017-04-29T07:44:53.366Z,12
2017-04-29T07:46:06.120Z,12
2017-04-29T07:47:19.115Z,12
2017-04-29T07:48:31.867Z,8
2017-04-29T07:49:44.619Z,8
2017-04-29T07:50:57.372Z,12
2017-04-29T07:52:09.940Z,12
2017-04-29T07:53:22.697Z,12
2017-04-29T07:54:35.448Z,12
2017-04-29T07:55:48.194Z,12
2017-04-29T07:57:00.932Z,12
2017-04-29T07:58:12.978Z,12
2017-04-29T07:59:25.252Z,12
2017-04-29T08:00:37.993Z,4
2017-04-29T08:01:50.733Z,12
2017-04-29T08:03:03.473Z,12
2017-04-29T08:04:15.742Z,12
2017-04-29T08:05:28.482Z,12
2017-04-29T08:06:41.222Z,12
2017-04-29T08:07:53.973Z,12
2017-04-29T08:09:07.021Z,4
2017-04-29T08:10:19.769Z,12
2017-04-29T08:11:32.510Z,12
2017-04-29T08:12:45.253Z,12
2017-04-29T08:13:58.007Z,12
2017-04-29T08:15:10.756Z,12
2017-04-29T08:16:23.021Z,12
2017-04-29T08:17:35.762Z,4
2017-04-29T08:18:47.550Z,4
2017-04-29T08:20:00.067Z,16
2017-04-29T08:21:12.811Z,12
2017-04-29T08:22:25.551Z,12
2017-04-29T08:23:38.294Z,12
2017-04-29T08:24:51.041Z,12
2017-04-29T08:26:03.794Z,12
2017-04-29T08:27:16.537Z,12
2017-04-29T08:28:29.273Z,8
2017-04-29T08:29:42.024Z,4
2017-04-29T08:30:54.778Z,4
2017-04-29T08:32:07.518Z,4
2017-04-29T08:33:19.793Z,4
2017-04-29T08:34:32.539Z,12
2017-04-29T08:35:45.284Z,12
2017-04-29T08:36:58.031Z,12
2017-04-29T08:38:10.778Z,12
2017-04-29T08:39:23.043Z,12
2017-04-29T08:40:35.810Z,12
2017-04-29T08:41:48.556Z,12
2017-04-29T08:43:01.302Z,12
2017-04-29T08:44:13.571Z,12
2017-04-29T08:45:25.849Z,12
2017-04-29T08:46:38.589Z,12
2017-04-29T08:47:51.330Z,4
2017-04-29T08:49:04.082Z,4
2017-04-29T08:50:16.827Z,12
2017-04-29T08:51:29.569Z,12
2017-04-29T08:52:41.837Z,12
2017-04-29T08:53:54.579Z,4
2017-04-29T08:55:07.334Z,12
2017-04-29T08:56:20.080Z,4
2017-04-29T08:57:32.826Z,4
2017-04-29T08:58:45.575Z,12
2017-04-29T08:59:58.335Z,16
2017-04-29T09:01:11.085Z,12
2017-04-29T09:02:23.830Z,12
2017-04-29T09:03:36.818Z,12
2017-04-29T09:04:49.568Z,12
2017-04-29T09:06:01.349Z,12
2017-04-29T09:07:14.100Z,12
2017-04-29T09:08:26.849Z,12
2017-04-29T09:09:39.591Z,12
2017-04-29T09:10:52.340Z,4
2017-04-29T09:12:05.095Z,4
2017-04-29T09:13:17.844Z,12
2017-04-29T09:14:30.887Z,16
2017-04-29T09:15:43.627Z,16
2017-04-29T09:16:55.899Z,12
2017-04-29T09:18:08.644Z,8
2017-04-29T09:19:20.677Z,16
2017-04-29T09:20:33.429Z,12
2017-04-29T09:21:46.167Z,16
2017-04-29T09:22:58.913Z,16
2017-04-29T09:24:11.656Z,16
2017-04-29T09:25:25.456Z,20
2017-04-29T09:26:38.202Z,20
2017-04-29T09:27:50.951Z,12
2017-04-29T09:29:03.696Z,16
2017-04-29T09:30:15.953Z,12
2017-04-29T09:31:28.703Z,12
2017-04-29T09:32:41.451Z,16
2017-04-29T09:33:54.199Z,16
2017-04-29T09:35:06.941Z,16
2017-04-29T09:36:19.455Z,20
2017-04-29T09:37:32.202Z,20
2017-04-29T09:38:44.952Z,24
2017-04-29T09:39:57.693Z,24
2017-04-29T09:41:10.433Z,28
2017-04-29T09:42:23.178Z,28
2017-04-29T09:43:35.448Z,28
2017-04-29T09:44:48.192Z,28
2017-04-29T09:46:00.931Z,28
2017-04-29T09:47:13.204Z,28
2017-04-29T09:48:25.963Z,32
2017-04-29T09:49:38.705Z,32
2017-04-29T09:50:51.450Z,36
2017-04-29T09:52:04.487Z,36
2017-04-29T09:53:16.759Z,32
2017-04-29T09:54:29.500Z,36
2017-04-29T09:55:41.753Z,36
2017-04-29T09:56:54.015Z,36
2017-04-29T09:58:06.282Z,44
2017-04-29T09:59:18.551Z,40
2017-04-29T10:00:31.289Z,48
2017-04-29T10:01:43.553Z,48
2017-04-29T10:02:56.340Z,48
2017-04-29T10:04:09.086Z,52
2017-04-29T10:05:21.821Z,56
2017-04-29T10:06:34.550Z,56
2017-04-29T10:07:46.805Z,60
2017-04-29T10:08:59.796Z,64
2017-04-29T10:10:11.579Z,64
2017-04-29T10:11:24.342Z,68
2017-04-29T10:12:37.080Z,72
2017-04-29T10:13:49.822Z,80
2017-04-29T10:15:02.568Z,76
2017-04-29T10:16:15.305Z,76
2017-04-29T10:17:28.072Z,80
2017-04-29T10:18:40.807Z,84
2017-04-29T10:19:53.800Z,88
2017-04-29T10:21:06.543Z,96
2017-04-29T10:22:19.275Z,92
2017-04-29T10:23:32.025Z,96
2017-04-29T10:24:44.770Z,100
2017-04-29T10:25:57.515Z,112
2017-04-29T10:27:10.252Z,104
2017-04-29T10:28:22.040Z,100
2017-04-29T10:29:34.784Z,104
2017-04-29T10:30:47.784Z,116
2017-04-29T10:32:00.045Z,128
2017-04-29T10:33:12.309Z,144
2017-04-29T10:34:25.059Z,152
2017-04-29T10:35:37.321Z,156
2017-04-29T10:36:50.066Z,168
2017-04-29T10:38:02.811Z,172
2017-04-29T10:39:15.558Z,184
2017-04-29T10:40:28.305Z,196
2017-04-29T10:41:41.344Z,204
2017-04-29T10:42:53.607Z,216
2017-04-29T10:44:06.357Z,224
2017-04-29T10:45:18.625Z,224
2017-04-29T10:46:31.672Z,220
2017-04-29T10:47:44.409Z,212
2017-04-29T10:48:57.155Z,212
2017-04-29T10:50:09.419Z,212
2017-04-29T10:51:22.173Z,212
2017-04-29T10:52:35.159Z,208
2017-04-29T10:53:47.422Z,228
2017-04-29T10:55:00.181Z,236
2017-04-29T10:56:12.930Z,256
2017-04-29T10:57:25.500Z,272
2017-04-29T10:58:38.249Z,272
2017-04-29T10:59:51.003Z,260
2017-04-29T11:01:03.269Z,236
2017-04-29T11:02:16.028Z,240
2017-04-29T11:03:28.781Z,244
2017-04-29T11:04:41.531Z,236
2017-04-29T11:05:53.805Z,232
2017-04-29T11:07:06.067Z,232
2017-04-29T11:08:32.899Z,244
2017-04-29T11:09:45.648Z,248
2017-04-29T11:10:57.916Z,264
2017-04-29T11:12:10.190Z,264
2017-04-29T11:13:21.983Z,276
2017-04-29T11:14:34.738Z,288
2017-04-29T11:15:47.015Z,300
2017-04-29T11:16:59.765Z,300
2017-04-29T11:18:12.515Z,308
2017-04-29T11:19:24.304Z,320
2017-04-29T11:20:37.055Z,316
2017-04-29T11:21:49.840Z,332
2017-04-29T11:23:02.590Z,360
2017-04-29T11:24:15.369Z,352
2017-04-29T11:25:27.689Z,372
2017-04-29T11:26:39.953Z,372
2017-04-29T11:27:52.710Z,384
2017-04-29T11:29:04.986Z,392
2017-04-29T11:30:17.726Z,408
2017-04-29T11:31:30.467Z,404
2017-04-29T11:32:43.215Z,420
2017-04-29T11:33:55.969Z,412
2017-04-29T11:35:08.969Z,392
2017-04-29T11:36:21.233Z,408
2017-04-29T11:37:33.977Z,420
2017-04-29T11:38:46.730Z,384
2017-04-29T11:39:59.480Z,352
2017-04-29T11:41:12.232Z,404
2017-04-29T11:42:24.976Z,392
2017-04-29T11:43:37.729Z,400
2017-04-29T11:44:50.478Z,432
2017-04-29T11:46:02.750Z,440
2017-04-29T11:47:15.495Z,428
2017-04-29T11:48:28.262Z,412
2017-04-29T11:49:40.539Z,424
2017-04-29T11:50:52.810Z,464
2017-04-29T11:52:05.807Z,452
2017-04-29T11:53:18.075Z,472
2017-04-29T11:54:30.368Z,476
2017-04-29T11:55:42.166Z,464
2017-04-29T11:56:54.915Z,476
2017-04-29T11:58:07.664Z,504
2017-04-29T11:59:19.942Z,504
2017-04-29T12:00:32.226Z,500
2017-04-29T12:01:44.975Z,516
2017-04-29T12:02:57.980Z,524
2017-04-29T12:04:10.247Z,520
2017-04-29T12:05:23.002Z,520
2017-04-29T12:06:35.274Z,544
2017-04-29T12:07:47.802Z,520
2017-04-29T12:09:00.544Z,508
2017-04-29T12:10:13.288Z,508
2017-04-29T12:11:26.029Z,476
2017-04-29T12:12:38.292Z,560
2017-04-29T12:14:05.120Z,648
2017-04-29T12:15:16.914Z,652
2017-04-29T12:16:29.661Z,656
2017-04-29T12:17:42.652Z,712
2017-04-29T12:18:54.915Z,744
2017-04-29T12:20:07.653Z,736
2017-04-29T12:21:19.436Z,696
2017-04-29T12:22:32.176Z,652
2017-04-29T12:23:44.913Z,612
2017-04-29T12:24:57.651Z,692
2017-04-29T12:26:10.388Z,716
2017-04-29T12:27:23.132Z,640
2017-04-29T12:28:35.447Z,664
2017-04-29T12:29:47.706Z,652
2017-04-29T12:30:59.964Z,740
2017-04-29T12:32:12.706Z,844
2017-04-29T12:33:24.964Z,816
2017-04-29T12:34:37.703Z,776
2017-04-29T12:35:49.491Z,704
2017-04-29T12:37:02.231Z,1008
2017-04-29T12:38:14.967Z,1284
2017-04-29T12:39:27.713Z,1696
2017-04-29T12:40:40.449Z,888
2017-04-29T12:41:53.183Z,1292
2017-04-29T12:43:05.930Z,876
2017-04-29T12:44:18.673Z,728
2017-04-29T12:45:31.714Z,2116
2017-04-29T12:46:44.450Z,1352
2017-04-29T12:47:57.195Z,772
2017-04-29T12:49:09.934Z,728
2017-04-29T12:50:22.194Z,2184
2017-04-29T12:51:34.453Z,720
2017-04-29T12:52:47.195Z,652
2017-04-29T12:53:59.459Z,648
2017-04-29T12:55:12.201Z,844
2017-04-29T12:56:25.240Z,904
2017-04-29T12:57:37.497Z,1004
2017-04-29T12:58:50.243Z,864
2017-04-29T13:00:01.548Z,848
2017-04-29T13:01:14.287Z,884
2017-04-29T13:02:26.551Z,924
2017-04-29T13:03:39.296Z,988
2017-04-29T13:04:52.034Z,860
2017-04-29T13:06:04.298Z,916
2017-04-29T13:07:17.037Z,860
2017-04-29T13:08:30.085Z,780
2017-04-29T13:09:42.829Z,748
2017-04-29T13:10:55.567Z,640
2017-04-29T13:12:08.318Z,700
2017-04-29T13:13:20.607Z,800
2017-04-29T13:14:33.343Z,980
2017-04-29T13:15:46.082Z,804
2017-04-29T13:16:58.342Z,752
2017-04-29T13:18:10.607Z,692
2017-04-29T13:19:23.357Z,824
2017-04-29T13:20:35.617Z,804
2017-04-29T13:21:48.350Z,848
2017-04-29T13:23:01.088Z,944
2017-04-29T13:24:13.834Z,908
2017-04-29T13:25:26.573Z,812
2017-04-29T13:26:38.835Z,792
2017-04-29T13:27:51.584Z,768
2017-04-29T13:29:04.330Z,744
2017-04-29T13:30:16.116Z,772
2017-04-29T13:31:28.378Z,768
2017-04-29T13:32:41.115Z,808
2017-04-29T13:33:53.857Z,932
2017-04-29T13:35:06.381Z,908
2017-04-29T13:36:19.121Z,948
2017-04-29T13:37:31.391Z,1168
2017-04-29T13:38:43.657Z,1016
2017-04-29T13:39:56.393Z,1116
2017-04-29T13:41:23.246Z,700
2017-04-29T13:42:35.506Z,736
2017-04-29T13:43:48.248Z,2288
2017-04-29T13:45:00.993Z,2176
2017-04-29T13:46:13.254Z,2020
2017-04-29T13:47:25.993Z,2056
2017-04-29T13:48:38.734Z,2092
2017-04-29T13:49:51.477Z,1712
2017-04-29T13:51:04.463Z,896
2017-04-29T13:52:17.201Z,736
2017-04-29T13:53:29.946Z,888
2017-04-29T13:54:42.686Z,932
2017-04-29T13:55:55.427Z,988
2017-04-29T13:57:07.943Z,896
2017-04-29T13:58:20.209Z,980
2017-04-29T13:59:32.952Z,928
2017-04-29T14:00:45.693Z,908
2017-04-29T14:01:58.440Z,968
2017-04-29T14:03:10.707Z,920
2017-04-29T14:04:22.486Z,868
2017-04-29T14:05:35.221Z,888
2017-04-29T14:06:47.956Z,952
2017-04-29T14:08:00.701Z,928
2017-04-29T14:09:12.963Z,920
2017-04-29T14:10:25.224Z,900
2017-04-29T14:11:37.495Z,876
2017-04-29T14:12:50.241Z,864
2017-04-29T14:14:02.983Z,888
2017-04-29T14:15:14.771Z,864
2017-04-29T14:16:27.509Z,796
2017-04-29T14:17:40.249Z,764
2017-04-29T14:18:52.984Z,784
2017-04-29T14:20:05.262Z,796
2017-04-29T14:21:18.003Z,824
2017-04-29T14:22:30.747Z,860
2017-04-29T14:23:43.747Z,880
2017-04-29T14:24:56.493Z,896
2017-04-29T14:26:09.246Z,1104
2017-04-29T14:27:21.996Z,1036
2017-04-29T14:28:34.258Z,872
2017-04-29T14:29:47.010Z,796
2017-04-29T14:30:59.768Z,760
2017-04-29T14:32:12.521Z,740
2017-04-29T14:33:25.273Z,680
2017-04-29T14:34:52.116Z,684
2017-04-29T14:36:04.388Z,744
2017-04-29T14:37:16.175Z,760
2017-04-29T14:38:28.454Z,816
2017-04-29T14:39:41.216Z,860
2017-04-29T14:40:53.481Z,864
2017-04-29T14:42:06.234Z,824
2017-04-29T14:43:18.504Z,776
2017-04-29T14:44:30.774Z,764
2017-04-29T14:45:43.533Z,700
2017-04-29T14:46:56.290Z,664
2017-04-29T14:48:08.082Z,660
2017-04-29T14:49:20.378Z,680
2017-04-29T14:50:33.131Z,688
2017-04-29T14:51:45.881Z,700
2017-04-29T14:52:58.632Z,708
2017-04-29T14:54:10.912Z,728
2017-04-29T14:55:23.661Z,772
2017-04-29T14:56:36.407Z,788
2017-04-29T14:57:49.165Z,740
2017-04-29T14:59:01.915Z,660
2017-04-29T15:00:14.659Z,564
2017-04-29T15:01:27.412Z,488
2017-04-29T15:02:40.167Z,436
2017-04-29T15:03:52.446Z,420
2017-04-29T15:05:05.189Z,444
2017-04-29T15:06:17.941Z,444
2017-04-29T15:07:30.695Z,456
2017-04-29T15:08:43.435Z,472
2017-04-29T15:09:56.212Z,468
2017-04-29T15:11:08.482Z,448
2017-04-29T15:12:21.482Z,436
2017-04-29T15:13:34.241Z,416
2017-04-29T15:14:46.983Z,404
2017-04-29T15:15:59.732Z,376
2017-04-29T15:17:12.006Z,352
2017-04-29T15:18:24.763Z,340
2017-04-29T15:19:37.517Z,328
2017-04-29T15:20:50.265Z,312
2017-04-29T15:22:03.013Z,296
2017-04-29T15:23:15.767Z,296
2017-04-29T15:24:28.041Z,284
2017-04-29T15:25:40.783Z,292
2017-04-29T15:26:53.050Z,308
2017-04-29T15:28:05.803Z,316
2017-04-29T15:29:18.326Z,316
2017-04-29T15:30:31.074Z,300
2017-04-29T15:31:43.824Z,296
2017-04-29T15:32:56.581Z,284
2017-04-29T15:34:09.333Z,272
2017-04-29T15:35:21.122Z,264
2017-04-29T15:36:33.877Z,272
2017-04-29T15:37:46.630Z,268
2017-04-29T15:38:59.408Z,268
2017-04-29T15:40:11.702Z,284
2017-04-29T15:41:23.964Z,336
2017-04-29T15:42:36.711Z,376
2017-04-29T15:43:49.464Z,380
2017-04-29T15:45:02.216Z,364
2017-04-29T15:46:14.965Z,348
2017-04-29T15:47:27.719Z,332
2017-04-29T15:48:39.993Z,348
2017-04-29T15:49:52.741Z,372
2017-04-29T15:51:05.521Z,372
2017-04-29T15:52:17.790Z,372
2017-04-29T15:53:30.073Z,376
2017-04-29T15:54:42.341Z,372
2017-04-29T15:55:55.389Z,340
2017-04-29T15:57:08.141Z,328
2017-04-29T15:58:20.416Z,328
2017-04-29T15:59:33.167Z,312
2017-04-29T16:00:45.908Z,332
2017-04-29T16:01:58.651Z,356
2017-04-29T16:03:10.917Z,348
2017-04-29T16:04:23.666Z,344
2017-04-29T16:05:35.932Z,344
2017-04-29T16:06:48.977Z,352
2017-04-29T16:08:01.727Z,320
2017-04-29T16:09:13.044Z,304
2017-04-29T16:10:25.787Z,292
2017-04-29T16:11:38.525Z,296
2017-04-29T16:12:51.524Z,292
2017-04-29T16:14:03.795Z,284
2017-04-29T16:15:15.588Z,296
2017-04-29T16:16:27.857Z,292
2017-04-29T16:17:40.127Z,288
2017-04-29T16:18:52.886Z,288
2017-04-29T16:20:05.639Z,296
2017-04-29T16:21:17.427Z,312
2017-04-29T16:22:30.163Z,328
2017-04-29T16:23:43.212Z,324
2017-04-29T16:24:55.969Z,312
2017-04-29T16:26:08.234Z,280
2017-04-29T16:27:20.501Z,288
2017-04-29T16:28:33.491Z,300
2017-04-29T16:29:46.239Z,280
2017-04-29T16:30:59.017Z,260
2017-04-29T16:32:11.760Z,240
2017-04-29T16:33:24.038Z,216
2017-04-29T16:34:36.316Z,188
2017-04-29T16:35:49.063Z,156
2017-04-29T16:37:01.807Z,156
2017-04-29T16:38:14.553Z,172
2017-04-29T16:39:27.304Z,200
2017-04-29T16:40:40.062Z,200
2017-04-29T16:41:52.323Z,192
2017-04-29T16:43:04.588Z,200
2017-04-29T16:44:16.387Z,196
2017-04-29T16:45:29.140Z,216
2017-04-29T16:46:41.890Z,236
2017-04-29T16:47:54.636Z,240
2017-04-29T16:49:06.905Z,256
2017-04-29T16:50:19.654Z,248
2017-04-29T16:51:32.176Z,244
2017-04-29T16:52:44.934Z,252
2017-04-29T16:53:57.691Z,264
2017-04-29T16:55:09.977Z,260
2017-04-29T16:56:22.258Z,264
2017-04-29T16:57:35.013Z,280
2017-04-29T16:58:47.760Z,292
2017-04-29T17:00:00.504Z,292
2017-04-29T17:01:12.786Z,284
2017-04-29T17:02:25.364Z,272
2017-04-29T17:03:37.629Z,256
2017-04-29T17:04:50.390Z,240
2017-04-29T17:06:03.155Z,228